createdAt,value
2022-10-02T00:00:43.709Z,70.20
2022-10-02T00:03:21.438Z,70.18
2022-10-02T00:05:54.110Z,70.24
2022-10-02T00:08:27.201Z,69.97
2022-10-02T00:11:02.397Z,69.73
2022-10-02T00:13:37.485Z,70.06
2022-10-02T00:16:10.722Z,69.85
2022-10-02T00:18:39.334Z,69.96
2022-10-02T00:21:12.901Z,69.99
2022-10-02T00:23:49.042Z,69.94
2022-10-02T00:26:18.249Z,69.89
2022-10-02T00:29:24.329Z,69.90
2022-10-02T00:32:12.116Z,69.74
2022-10-02T00:35:02.973Z,69.77
2022-10-02T00:37:51.583Z,69.67
2022-10-02T00:40:42.722Z,69.83
2022-10-02T00:43:33.462Z,69.68
2022-10-02T00:46:37.958Z,69.86
2022-10-02T00:49:31.200Z,69.25
2022-10-02T00:52:13.935Z,70.05
2022-10-02T00:55:08.505Z,70.47
2022-10-02T00:57:58.269Z,69.35
2022-10-02T01:00:27.664Z,69.68
2022-10-02T01:03:20.652Z,69.91
2022-10-02T01:05:47.461Z,69.85
2022-10-02T01:08:14.470Z,70.02
2022-10-02T01:10:41.656Z,69.92
2022-10-02T01:13:08.735Z,69.78
2022-10-02T01:15:39.300Z,69.44
2022-10-02T01:18:08.392Z,69.64
2022-10-02T01:20:48.547Z,69.49
2022-10-02T01:23:17.396Z,69.74
2022-10-02T01:25:44.301Z,69.38
2022-10-02T01:28:11.767Z,69.27
2022-10-02T01:30:41.548Z,69.42
2022-10-02T01:33:10.340Z,69.73
2022-10-02T01:35:38.954Z,69.01
2022-10-02T01:38:14.536Z,69.64
2022-10-02T01:40:41.840Z,69.35
2022-10-02T01:43:37.738Z,69.27
2022-10-02T01:46:49.095Z,69.22
2022-10-02T01:49:45.066Z,69.42
2022-10-02T01:52:27.146Z,69.90
2022-10-02T01:55:02.888Z,69.81
2022-10-02T01:57:48.157Z,69.89
2022-10-02T02:00:20.591Z,69.71
2022-10-02T02:03:09.380Z,69.64
2022-10-02T02:05:50.253Z,70.18
2022-10-02T02:08:31.714Z,70.33
2022-10-02T02:11:12.448Z,70.29
2022-10-02T02:14:01.765Z,70.47
2022-10-02T02:16:46.060Z,70.81
2022-10-02T02:19:18.705Z,70.97
2022-10-02T02:21:57.382Z,71.40
2022-10-02T02:24:31.335Z,71.85
2022-10-02T02:27:00.494Z,71.93
2022-10-02T02:29:32.464Z,71.45
2022-10-02T02:32:07.831Z,71.70
2022-10-02T02:34:53.784Z,72.38
2022-10-02T02:37:23.812Z,72.01
2022-10-02T02:39:57.644Z,72.23
2022-10-02T02:42:29.909Z,72.59
2022-10-02T02:45:02.612Z,72.43
2022-10-02T02:47:40.219Z,72.55
2022-10-02T02:50:18.568Z,72.16
2022-10-02T02:53:01.914Z,72.15
2022-10-02T02:55:34.781Z,72.38
2022-10-02T02:58:12.257Z,71.98
2022-10-02T03:00:39.056Z,72.39
2022-10-02T03:03:05.776Z,72.64
2022-10-02T03:05:37.503Z,72.45
2022-10-02T03:08:07.882Z,71.63
2022-10-02T03:10:40.539Z,71.98
2022-10-02T03:13:21.200Z,71.90
2022-10-02T03:16:03.065Z,71.78
2022-10-02T03:19:01.505Z,71.21
2022-10-02T03:21:52.388Z,71.73
2022-10-02T03:24:27.455Z,71.29
2022-10-02T03:26:58.099Z,71.63
2022-10-02T03:29:56.487Z,71.27
2022-10-02T03:32:24.952Z,71.20
2022-10-02T03:34:52.652Z,70.87
2022-10-02T03:37:19.689Z,71.19
2022-10-02T03:39:46.275Z,71.66
2022-10-02T03:42:14.885Z,71.17
2022-10-02T03:44:43.242Z,71.75
2022-10-02T03:47:09.882Z,71.58
2022-10-02T03:49:36.469Z,71.40
2022-10-02T03:52:03.103Z,71.83
2022-10-02T03:54:34.249Z,71.79
2022-10-02T03:57:06.104Z,71.52
2022-10-02T03:59:53.949Z,71.93
2022-10-02T04:02:34.239Z,71.88
2022-10-02T04:05:43.026Z,72.04
2022-10-02T04:08:32.832Z,72.00
2022-10-02T04:11:12.000Z,71.71
2022-10-02T04:13:44.656Z,72.26
2022-10-02T04:16:27.821Z,72.14
2022-10-02T04:18:58.979Z,72.08
2022-10-02T04:21:34.859Z,72.01
2022-10-02T04:24:09.573Z,72.33
2022-10-02T04:26:44.860Z,72.28
2022-10-02T04:29:14.422Z,72.06
2022-10-02T04:31:41.182Z,72.05
2022-10-02T04:34:13.011Z,72.10
2022-10-02T04:37:20.527Z,72.15
2022-10-02T04:40:06.490Z,72.47
2022-10-02T04:42:39.073Z,72.26
2022-10-02T04:45:17.736Z,72.54
2022-10-02T04:48:03.135Z,72.88
2022-10-02T04:50:42.632Z,72.92
2022-10-02T04:53:24.320Z,72.93
2022-10-02T04:56:15.779Z,73.12
2022-10-02T04:58:48.548Z,73.04
2022-10-02T05:01:23.275Z,73.23
2022-10-02T05:04:08.156Z,72.83
2022-10-02T05:06:49.873Z,73.25
2022-10-02T05:09:28.960Z,73.06
2022-10-02T05:12:19.639Z,73.21
2022-10-02T05:15:21.395Z,73.37
2022-10-02T05:18:21.609Z,73.97
2022-10-02T05:20:50.997Z,74.40
2022-10-02T05:23:24.654Z,74.64
2022-10-02T05:26:09.598Z,74.62
2022-10-02T05:29:17.561Z,74.60
2022-10-02T05:32:02.791Z,74.22
2022-10-02T05:35:01.430Z,73.86
2022-10-02T05:37:27.900Z,74.02
2022-10-02T05:40:17.326Z,74.03
2022-10-02T05:42:55.699Z,74.16
2022-10-02T05:45:31.042Z,73.99
2022-10-02T05:48:16.160Z,73.62
2022-10-02T05:50:49.039Z,74.19
2022-10-02T05:53:31.609Z,73.47
2022-10-02T05:56:38.187Z,73.66
2022-10-02T05:59:14.490Z,74.04
2022-10-02T06:01:45.914Z,73.92
2022-10-02T06:04:38.844Z,73.71
2022-10-02T06:07:13.388Z,73.67
2022-10-02T06:10:02.876Z,73.70
2022-10-02T06:12:38.483Z,73.28
2022-10-02T06:15:31.364Z,73.05
2022-10-02T06:18:11.908Z,73.37
2022-10-02T06:20:51.841Z,73.11
2022-10-02T06:23:40.996Z,73.11
2022-10-02T06:26:28.600Z,73.61
2022-10-02T06:29:19.294Z,73.75
2022-10-02T06:31:54.234Z,74.03
2022-10-02T06:34:20.810Z,73.63
2022-10-02T06:37:31.918Z,73.85
2022-10-02T06:40:05.439Z,74.46
2022-10-02T06:42:55.412Z,74.59
2022-10-02T06:45:46.144Z,75.10
2022-10-02T06:48:38.502Z,75.36
2022-10-02T06:51:22.499Z,76.95
2022-10-02T06:54:22.464Z,77.17
2022-10-02T06:57:13.384Z,77.19
2022-10-02T06:59:48.608Z,76.60
2022-10-02T07:02:41.065Z,76.75
2022-10-02T07:05:32.588Z,76.27
2022-10-02T07:08:17.517Z,76.67
2022-10-02T07:10:44.009Z,76.99
2022-10-02T07:13:28.799Z,77.09
2022-10-02T07:16:27.211Z,76.68
2022-10-02T07:18:57.864Z,77.07
2022-10-02T07:21:27.505Z,77.99
2022-10-02T07:24:10.060Z,77.39
2022-10-02T07:27:11.121Z,77.37
2022-10-02T07:29:42.795Z,77.48
2022-10-02T07:32:18.728Z,78.00
2022-10-02T07:34:59.038Z,77.60
2022-10-02T07:37:32.313Z,77.43
2022-10-02T07:40:09.969Z,77.42
2022-10-02T07:42:51.674Z,78.01
2022-10-02T07:45:38.562Z,77.84
2022-10-02T07:48:14.132Z,78.22
2022-10-02T07:51:05.344Z,78.66
2022-10-02T07:53:40.177Z,77.82
2022-10-02T07:56:11.681Z,78.07
2022-10-02T07:58:50.918Z,78.77
2022-10-02T08:01:33.808Z,79.30
2022-10-02T08:04:18.810Z,79.04
2022-10-02T08:06:47.255Z,78.71
2022-10-02T08:09:16.408Z,78.55
2022-10-02T08:11:57.970Z,79.04
2022-10-02T08:14:30.003Z,78.69
2022-10-02T08:17:02.348Z,78.38
2022-10-02T08:19:39.293Z,78.20
2022-10-02T08:22:26.262Z,79.10
2022-10-02T08:24:59.954Z,79.00
2022-10-02T08:27:45.887Z,79.59
2022-10-02T08:30:14.529Z,79.27
2022-10-02T08:32:41.492Z,79.16
2022-10-02T08:35:19.864Z,78.35
2022-10-02T08:38:38.102Z,77.94
2022-10-02T08:41:24.640Z,77.74
2022-10-02T08:44:14.246Z,77.83
2022-10-02T08:47:18.604Z,77.60
2022-10-02T08:49:53.501Z,77.58
2022-10-02T08:52:38.962Z,77.41
2022-10-02T08:55:31.876Z,76.96
2022-10-02T08:58:45.439Z,76.22
2022-10-02T09:01:37.053Z,75.71
2022-10-02T09:04:46.046Z,76.68
2022-10-02T09:07:31.213Z,76.43
2022-10-02T09:10:13.144Z,76.36
2022-10-02T09:13:09.992Z,76.27
2022-10-02T09:15:51.031Z,76.64
2022-10-02T09:18:40.549Z,77.19
2022-10-02T09:21:30.066Z,76.20
2022-10-02T09:24:24.214Z,77.02
2022-10-02T09:27:20.123Z,76.97
2022-10-02T09:30:19.499Z,77.11
2022-10-02T09:33:04.030Z,77.53
2022-10-02T09:35:54.435Z,77.26
2022-10-02T09:38:46.062Z,76.07
2022-10-02T09:41:26.249Z,75.25
2022-10-02T09:44:06.178Z,74.33
2022-10-02T09:47:14.090Z,73.85
2022-10-02T09:50:25.780Z,74.26
2022-10-02T09:53:04.664Z,74.04
2022-10-02T09:56:08.694Z,73.49
2022-10-02T09:58:49.857Z,73.66
2022-10-02T10:01:35.327Z,73.86
2022-10-02T10:05:04.677Z,74.30
2022-10-02T10:07:41.378Z,74.32
2022-10-02T10:10:44.968Z,74.27
2022-10-02T10:13:48.632Z,74.06
2022-10-02T10:16:43.281Z,74.83
2022-10-02T10:19:34.804Z,74.90
2022-10-02T10:22:28.882Z,74.37
2022-10-02T10:25:12.847Z,74.85
2022-10-02T10:28:06.173Z,75.33
2022-10-02T10:30:52.739Z,76.17
2022-10-02T10:33:50.340Z,76.66
2022-10-02T10:37:01.295Z,76.99
2022-10-02T10:40:05.548Z,76.89
2022-10-02T10:43:07.772Z,76.12
2022-10-02T10:45:41.432Z,76.27
2022-10-02T10:48:22.643Z,75.48
2022-10-02T10:51:16.517Z,75.16
2022-10-02T10:54:04.838Z,74.57
2022-10-02T10:56:56.005Z,74.67
2022-10-02T10:59:55.318Z,73.95
2022-10-02T11:02:31.719Z,74.86
2022-10-02T11:05:53.504Z,74.58
2022-10-02T11:08:45.455Z,74.13
2022-10-02T11:11:32.339Z,74.20
2022-10-02T11:14:17.324Z,74.07
2022-10-02T11:17:28.118Z,73.29
2022-10-02T11:20:20.353Z,73.04
2022-10-02T11:23:02.451Z,73.00
2022-10-02T11:25:38.658Z,72.83
2022-10-02T11:28:22.050Z,72.66
2022-10-02T11:31:30.936Z,72.86
2022-10-02T11:33:57.822Z,72.85
2022-10-02T11:36:42.978Z,73.54
2022-10-02T11:39:22.283Z,73.92
2022-10-02T11:42:25.326Z,74.00
2022-10-02T11:45:20.567Z,74.19
2022-10-02T11:48:12.648Z,73.97
2022-10-02T11:50:56.118Z,73.87
2022-10-02T11:53:44.699Z,73.77
2022-10-02T11:56:22.222Z,74.53
2022-10-02T11:59:03.944Z,74.39
2022-10-02T12:01:33.900Z,74.41
2022-10-02T12:04:25.370Z,74.59
2022-10-02T12:07:11.016Z,74.16
2022-10-02T12:09:56.104Z,74.76
2022-10-02T12:12:37.880Z,75.57
2022-10-02T12:15:26.153Z,75.40
2022-10-02T12:18:21.803Z,75.59
2022-10-02T12:21:10.412Z,74.77
2022-10-02T12:24:19.943Z,74.51
2022-10-02T12:27:09.655Z,74.44
2022-10-02T12:29:57.023Z,73.74
2022-10-02T12:32:53.106Z,72.72
2022-10-02T12:35:22.890Z,73.72
2022-10-02T12:38:04.074Z,73.79
2022-10-02T12:40:43.641Z,73.36
2022-10-02T12:43:38.320Z,73.80
2022-10-02T12:46:40.246Z,73.50
2022-10-02T12:49:23.649Z,73.32
2022-10-02T12:52:24.029Z,73.14
2022-10-02T12:55:32.446Z,72.79
2022-10-02T12:58:23.625Z,72.57
2022-10-02T13:00:59.282Z,73.01
2022-10-02T13:03:56.159Z,73.50
2022-10-02T13:06:52.223Z,73.36
2022-10-02T13:09:28.099Z,73.08
2022-10-02T13:12:16.432Z,73.76
2022-10-02T13:15:02.793Z,73.45
2022-10-02T13:17:55.884Z,73.43
2022-10-02T13:20:46.893Z,73.45
2022-10-02T13:23:31.994Z,74.06
2022-10-02T13:26:22.687Z,74.48
2022-10-02T13:29:07.124Z,74.78
2022-10-02T13:31:55.243Z,75.51
2022-10-02T13:35:11.791Z,75.84
2022-10-02T13:37:58.408Z,75.98
2022-10-02T13:40:31.179Z,75.43
2022-10-02T13:43:21.268Z,75.40
2022-10-02T13:46:21.176Z,75.46
2022-10-02T13:49:00.873Z,75.30
2022-10-02T13:51:27.286Z,75.12
2022-10-02T13:54:29.871Z,74.81
2022-10-02T13:57:22.172Z,74.46
2022-10-02T14:00:11.275Z,74.64
2022-10-02T14:02:48.809Z,74.16
2022-10-02T14:05:23.665Z,74.44
2022-10-02T14:08:24.506Z,74.32
2022-10-02T14:11:29.914Z,75.14
2022-10-02T14:14:05.864Z,75.00
2022-10-02T14:17:10.235Z,74.76
2022-10-02T14:20:14.834Z,75.06
2022-10-02T14:23:12.252Z,74.86
2022-10-02T14:25:45.484Z,74.93
2022-10-02T14:28:34.120Z,74.28
2022-10-02T14:31:22.540Z,75.05
2022-10-02T14:34:20.016Z,74.49
2022-10-02T14:37:23.711Z,74.05
2022-10-02T14:39:50.852Z,74.70
2022-10-02T14:42:40.797Z,75.67
2022-10-02T14:45:29.326Z,76.09
2022-10-02T14:47:55.880Z,75.77
2022-10-02T14:50:28.072Z,75.95
2022-10-02T14:53:13.601Z,76.39
2022-10-02T14:55:49.264Z,76.18
2022-10-02T14:58:47.229Z,76.07
2022-10-02T15:01:22.251Z,75.86
2022-10-02T15:04:18.410Z,75.82
2022-10-02T15:07:04.357Z,75.26
2022-10-02T15:09:37.332Z,75.17
2022-10-02T15:12:04.597Z,74.71
2022-10-02T15:14:36.997Z,74.83
2022-10-02T15:17:29.143Z,74.98
2022-10-02T15:20:02.997Z,75.71
2022-10-02T15:22:38.985Z,75.12
2022-10-02T15:25:25.511Z,75.43
2022-10-02T15:27:52.052Z,74.97
2022-10-02T15:30:23.728Z,75.64
2022-10-02T15:33:12.023Z,75.96
2022-10-02T15:36:00.294Z,75.57
2022-10-02T15:38:42.156Z,76.11
2022-10-02T15:41:11.815Z,76.07
2022-10-02T15:43:54.254Z,76.36
2022-10-02T15:47:01.410Z,76.24
2022-10-02T15:49:52.733Z,76.65
2022-10-02T15:52:34.727Z,76.64
2022-10-02T15:55:40.475Z,76.96
2022-10-02T15:58:28.942Z,76.56
2022-10-02T16:01:01.810Z,76.97
2022-10-02T16:03:39.842Z,76.82
2022-10-02T16:06:12.432Z,78.13
2022-10-02T16:08:57.685Z,78.24
2022-10-02T16:11:33.211Z,78.49
2022-10-02T16:14:13.819Z,78.84
2022-10-02T16:17:10.762Z,78.65
2022-10-02T16:20:08.192Z,78.39
2022-10-02T16:23:05.050Z,78.57
2022-10-02T16:25:58.449Z,78.13
2022-10-02T16:28:49.939Z,78.79
2022-10-02T16:31:37.646Z,78.45
2022-10-02T16:34:26.622Z,78.34
2022-10-02T16:37:05.543Z,78.17
2022-10-02T16:40:00.854Z,77.99
2022-10-02T16:43:12.832Z,77.81
2022-10-02T16:46:01.203Z,77.80
2022-10-02T16:48:42.205Z,77.45
2022-10-02T16:51:31.286Z,77.34
2022-10-02T16:54:09.926Z,77.51
2022-10-02T16:56:54.601Z,77.57
2022-10-02T16:59:29.536Z,77.53
2022-10-02T17:02:17.627Z,77.45
2022-10-02T17:05:13.035Z,77.53
2022-10-02T17:08:19.885Z,77.27
2022-10-02T17:11:04.242Z,77.19
2022-10-02T17:13:46.864Z,77.77
2022-10-02T17:16:22.098Z,77.35
2022-10-02T17:19:03.919Z,77.70
2022-10-02T17:21:51.923Z,77.31
2022-10-02T17:24:42.256Z,77.53
2022-10-02T17:27:30.062Z,77.40
2022-10-02T17:30:26.325Z,77.69
2022-10-02T17:33:15.071Z,77.79
2022-10-02T17:35:55.019Z,77.60
2022-10-02T17:38:24.069Z,77.83
2022-10-02T17:40:54.179Z,77.94
2022-10-02T17:44:02.802Z,77.99
2022-10-02T17:46:41.502Z,77.91
2022-10-02T17:49:23.307Z,77.88
2022-10-02T17:52:34.469Z,77.52
2022-10-02T17:56:04.963Z,77.12
2022-10-02T17:58:44.570Z,76.75
2022-10-02T18:01:29.029Z,76.80
2022-10-02T18:04:24.171Z,77.26
2022-10-02T18:07:03.635Z,77.32
2022-10-02T18:09:43.501Z,77.89
2022-10-02T18:12:22.383Z,78.28
2022-10-02T18:15:11.735Z,78.78
2022-10-02T18:18:01.614Z,78.61
2022-10-02T18:20:43.934Z,78.65
2022-10-02T18:23:27.988Z,79.17
2022-10-02T18:26:18.049Z,79.37
2022-10-02T18:29:19.084Z,79.21
2022-10-02T18:31:57.975Z,79.44
2022-10-02T18:34:43.619Z,79.97
2022-10-02T18:37:48.740Z,80.09
2022-10-02T18:40:48.394Z,80.31
2022-10-02T18:43:21.143Z,80.37
2022-10-02T18:46:00.976Z,80.61
2022-10-02T18:48:48.438Z,80.57
2022-10-02T18:51:46.330Z,80.33
2022-10-02T18:54:17.901Z,80.45
2022-10-02T18:57:02.721Z,80.71
2022-10-02T18:59:37.252Z,80.25
2022-10-02T19:02:27.624Z,80.54
2022-10-02T19:05:19.645Z,80.67
2022-10-02T19:07:58.394Z,81.09
2022-10-02T19:10:40.746Z,81.31
2022-10-02T19:13:17.606Z,81.49
2022-10-02T19:15:46.951Z,80.82
2022-10-02T19:18:26.957Z,80.74
2022-10-02T19:21:06.621Z,80.88
2022-10-02T19:23:45.576Z,80.30
2022-10-02T19:26:19.964Z,81.20
2022-10-02T19:29:22.570Z,81.43
2022-10-02T19:31:50.863Z,81.67
2022-10-02T19:34:20.673Z,81.69
2022-10-02T19:36:50.633Z,81.83
2022-10-02T19:39:30.496Z,81.94
2022-10-02T19:42:03.148Z,82.14
2022-10-02T19:44:39.140Z,81.74
2022-10-02T19:47:44.706Z,82.01
2022-10-02T19:50:44.341Z,81.48
2022-10-02T19:53:24.570Z,81.59
2022-10-02T19:56:07.546Z,81.68
2022-10-02T19:58:40.421Z,81.85
2022-10-02T20:01:23.070Z,81.92
2022-10-02T20:03:55.784Z,82.16
2022-10-02T20:06:25.285Z,82.22
2022-10-02T20:09:05.745Z,82.59
2022-10-02T20:11:45.348Z,82.18
2022-10-02T20:14:15.626Z,82.41
2022-10-02T20:17:00.998Z,82.25
2022-10-02T20:19:34.385Z,82.16
2022-10-02T20:22:12.201Z,82.48
2022-10-02T20:24:51.381Z,82.04
2022-10-02T20:27:51.947Z,81.85
2022-10-02T20:30:22.087Z,82.13
2022-10-02T20:33:00.083Z,82.19
2022-10-02T20:35:35.219Z,81.71
2022-10-02T20:38:15.094Z,82.08
2022-10-02T20:40:46.955Z,81.71
2022-10-02T20:43:23.933Z,81.94
2022-10-02T20:46:31.819Z,81.81
2022-10-02T20:49:38.419Z,82.15
2022-10-02T20:52:30.756Z,81.53
2022-10-02T20:55:18.766Z,81.62
2022-10-02T20:58:04.914Z,81.99
2022-10-02T21:01:08.698Z,81.84
2022-10-02T21:03:47.803Z,81.65
2022-10-02T21:06:42.384Z,81.78
2022-10-02T21:09:45.267Z,81.56
2022-10-02T21:12:18.282Z,81.74
2022-10-02T21:15:16.063Z,81.40
2022-10-02T21:18:07.642Z,81.28
2022-10-02T21:20:53.443Z,80.65
2022-10-02T21:23:33.612Z,80.58
2022-10-02T21:26:35.625Z,80.49
2022-10-02T21:29:08.708Z,80.42
2022-10-02T21:31:44.432Z,80.54
2022-10-02T21:34:53.989Z,80.74
2022-10-02T21:37:50.543Z,80.97
2022-10-02T21:40:42.448Z,81.18
2022-10-02T21:43:34.018Z,81.20
2022-10-02T21:46:10.040Z,80.86
2022-10-02T21:49:14.522Z,80.95
2022-10-02T21:52:11.966Z,80.51
2022-10-02T21:55:13.548Z,80.83
2022-10-02T21:58:08.019Z,80.67
2022-10-02T22:00:56.039Z,81.16
2022-10-02T22:03:49.622Z,80.99
2022-10-02T22:06:25.912Z,81.04
2022-10-02T22:09:08.490Z,81.07
2022-10-02T22:12:00.023Z,81.15
2022-10-02T22:14:36.809Z,81.28
2022-10-02T22:17:09.331Z,81.47
2022-10-02T22:19:54.957Z,81.42
2022-10-02T22:22:24.453Z,81.07
2022-10-02T22:25:09.916Z,81.33
2022-10-02T22:28:02.814Z,81.12
2022-10-02T22:30:38.384Z,80.39
2022-10-02T22:33:21.032Z,80.48
2022-10-02T22:36:06.396Z,78.01
2022-10-02T22:38:46.178Z,76.53
2022-10-02T22:41:16.076Z,75.95
2022-10-02T22:44:09.557Z,76.51
2022-10-02T22:46:49.186Z,76.66
2022-10-02T22:49:24.531Z,76.91
2022-10-02T22:52:00.752Z,76.60
2022-10-02T22:54:40.462Z,77.08
2022-10-02T22:57:16.490Z,77.23
2022-10-02T22:59:53.887Z,77.19
2022-10-02T23:02:27.028Z,77.59
2022-10-02T23:05:20.585Z,78.07
2022-10-02T23:08:02.084Z,78.39
2022-10-02T23:10:42.873Z,79.54
2022-10-02T23:13:09.441Z,79.29
2022-10-02T23:15:51.234Z,79.68
2022-10-02T23:18:26.991Z,79.33
2022-10-02T23:21:03.122Z,78.98
2022-10-02T23:24:16.264Z,78.44
2022-10-02T23:26:51.831Z,77.65
2022-10-02T23:29:41.411Z,77.67
2022-10-02T23:32:24.011Z,77.09
2022-10-02T23:35:21.241Z,77.01
2022-10-02T23:37:57.797Z,76.97
2022-10-02T23:41:14.819Z,76.36
2022-10-02T23:44:01.907Z,76.42
2022-10-02T23:46:39.517Z,76.45
2022-10-02T23:49:10.583Z,76.48
2022-10-02T23:51:44.984Z,76.54
2022-10-02T23:54:54.170Z,76.63
2022-10-02T23:57:20.702Z,76.20
